createdAt,value
2022-08-17T00:01:51.889Z,34.50
2022-08-17T00:04:22.193Z,34.52
2022-08-17T00:06:52.267Z,34.52
2022-08-17T00:09:21.789Z,34.48
2022-08-17T00:12:42.930Z,34.59
2022-08-17T00:14:46.680Z,34.63
2022-08-17T00:17:16.132Z,34.62
2022-08-17T00:19:45.404Z,34.59
2022-08-17T00:22:32.277Z,34.64
2022-08-17T00:25:05.874Z,34.66
2022-08-17T00:27:35.282Z,34.60
2022-08-17T00:30:07.712Z,34.67
2022-08-17T00:33:23.382Z,34.70
2022-08-17T00:35:38.837Z,34.70
2022-08-17T00:38:11.098Z,34.72
2022-08-17T00:40:47.978Z,34.72
2022-08-17T00:43:37.121Z,34.71
2022-08-17T00:46:16.840Z,34.73
2022-08-17T00:48:46.931Z,34.72
2022-08-17T00:51:25.295Z,34.65
2022-08-17T00:54:20.516Z,34.57
2022-08-17T00:57:12.160Z,34.76
2022-08-17T00:59:50.567Z,34.77
2022-08-17T01:02:41.479Z,34.78
2022-08-17T01:05:21.598Z,34.78
2022-08-17T01:07:54.188Z,34.77
2022-08-17T01:10:58.798Z,34.74
2022-08-17T01:13:21.329Z,34.73
2022-08-17T01:16:14.030Z,34.83
2022-08-17T01:18:43.520Z,34.83
2022-08-17T01:21:20.650Z,34.82
2022-08-17T01:23:50.216Z,34.82
2022-08-17T01:26:20.706Z,34.84
2022-08-17T01:28:53.792Z,34.85
2022-08-17T01:31:27.271Z,34.86
2022-08-17T01:33:56.654Z,34.85
2022-08-17T01:36:26.254Z,34.71
2022-08-17T01:38:57.086Z,34.90
2022-08-17T01:41:26.760Z,34.87
2022-08-17T01:44:06.937Z,34.91
2022-08-17T01:46:38.265Z,34.84
2022-08-17T01:49:15.267Z,34.96
2022-08-17T01:51:44.603Z,34.90
2022-08-17T01:54:17.135Z,34.98
2022-08-17T01:56:50.904Z,34.99
2022-08-17T01:59:21.877Z,34.94
2022-08-17T02:01:51.885Z,34.91
2022-08-17T02:04:21.120Z,34.99
2022-08-17T02:06:53.299Z,34.99
2022-08-17T02:09:27.187Z,34.87
2022-08-17T02:12:04.772Z,35.03
2022-08-17T02:14:50.227Z,34.96
2022-08-17T02:17:19.767Z,35.06
2022-08-17T02:19:49.018Z,34.99
2022-08-17T02:22:19.504Z,35.07
2022-08-17T02:24:59.440Z,35.06
2022-08-17T02:27:31.327Z,35.06
2022-08-17T02:30:00.610Z,35.02
2022-08-17T02:32:29.817Z,35.00
2022-08-17T02:34:59.919Z,35.08
2022-08-17T02:37:30.068Z,35.09
2022-08-17T02:40:00.752Z,35.12
2022-08-17T02:42:35.171Z,35.09
2022-08-17T02:45:12.375Z,34.97
2022-08-17T02:47:42.690Z,35.02
2022-08-17T02:50:14.409Z,35.08
2022-08-17T02:52:47.477Z,35.16
2022-08-17T02:55:30.162Z,35.16
2022-08-17T02:57:59.460Z,35.17
2022-08-17T03:00:36.588Z,35.06
2022-08-17T03:03:07.548Z,35.18
2022-08-17T03:05:39.599Z,35.18
2022-08-17T03:08:11.726Z,35.18
2022-08-17T03:10:44.164Z,35.11
2022-08-17T03:13:15.710Z,35.19
2022-08-17T03:15:46.785Z,35.20
2022-08-17T03:18:21.951Z,35.10
2022-08-17T03:20:58.960Z,35.10
2022-08-17T03:23:29.709Z,35.16
2022-08-17T03:26:00.684Z,35.19
2022-08-17T03:28:30.182Z,35.19
2022-08-17T03:30:59.686Z,35.15
2022-08-17T03:33:28.892Z,35.17
2022-08-17T03:35:58.355Z,35.18
2022-08-17T03:38:29.129Z,35.19
2022-08-17T03:41:08.994Z,35.14
2022-08-17T03:43:38.650Z,35.16
2022-08-17T03:46:28.273Z,35.17
2022-08-17T03:49:24.450Z,35.19
2022-08-17T03:52:12.387Z,35.18
2022-08-17T03:55:00.233Z,35.16
2022-08-17T03:57:30.410Z,35.16
2022-08-17T04:00:01.030Z,35.10
2022-08-17T04:02:33.716Z,35.23
2022-08-17T04:05:02.978Z,35.21
2022-08-17T04:07:33.253Z,35.14
2022-08-17T04:10:02.866Z,35.17
2022-08-17T04:12:49.444Z,35.18
2022-08-17T04:15:19.815Z,35.22
2022-08-17T04:17:49.583Z,35.25
2022-08-17T04:20:20.989Z,35.26
2022-08-17T04:23:03.410Z,35.13
2022-08-17T04:25:36.396Z,35.19
2022-08-17T04:28:07.669Z,35.27
2022-08-17T04:30:46.412Z,35.23
2022-08-17T04:33:18.545Z,35.19
2022-08-17T04:35:50.495Z,35.24
2022-08-17T04:38:22.726Z,34.98
2022-08-17T04:41:10.292Z,35.19
2022-08-17T04:43:41.955Z,35.20
2022-08-17T04:46:20.605Z,35.18
2022-08-17T04:48:51.969Z,35.19
2022-08-17T04:51:24.795Z,35.19
2022-08-17T04:53:56.668Z,35.19
2022-08-17T04:56:27.532Z,35.07
2022-08-17T04:58:59.821Z,35.18
2022-08-17T05:01:31.696Z,35.15
2022-08-17T05:04:33.066Z,35.13
2022-08-17T05:06:57.705Z,35.08
2022-08-17T05:09:27.469Z,35.11
2022-08-17T05:11:56.659Z,35.02
2022-08-17T05:14:32.951Z,35.07
2022-08-17T05:17:04.146Z,35.01
2022-08-17T05:19:38.676Z,35.06
2022-08-17T05:22:08.165Z,35.06
2022-08-17T05:24:39.852Z,35.04
2022-08-17T05:27:15.893Z,34.93
2022-08-17T05:29:48.462Z,35.06
2022-08-17T05:32:38.034Z,34.97
2022-08-17T05:35:08.356Z,35.11
2022-08-17T05:37:37.539Z,35.08
2022-08-17T05:40:07.644Z,35.08
2022-08-17T05:42:36.920Z,35.12
2022-08-17T05:45:07.300Z,35.10
2022-08-17T05:47:36.655Z,35.13
2022-08-17T05:50:10.438Z,35.10
2022-08-17T05:53:13.733Z,35.10
2022-08-17T05:56:04.241Z,35.14
2022-08-17T05:58:35.623Z,35.14
2022-08-17T06:01:29.659Z,35.11
2022-08-17T06:04:35.346Z,35.13
2022-08-17T06:07:24.066Z,35.06
2022-08-17T06:10:07.957Z,35.12
2022-08-17T06:13:06.070Z,35.11
2022-08-17T06:16:03.672Z,35.09
2022-08-17T06:19:13.796Z,35.09
2022-08-17T06:21:47.095Z,35.06
2022-08-17T06:24:45.259Z,35.08
2022-08-17T06:27:25.738Z,35.06
2022-08-17T06:30:10.440Z,35.06
2022-08-17T06:32:45.882Z,34.96
2022-08-17T06:35:19.732Z,35.01
2022-08-17T06:38:01.366Z,34.96
2022-08-17T06:40:56.533Z,34.96
2022-08-17T06:43:25.802Z,34.77
2022-08-17T06:45:59.795Z,34.89
2022-08-17T06:48:48.344Z,34.86
2022-08-17T06:51:33.086Z,34.83
2022-08-17T06:54:09.087Z,34.68
2022-08-17T06:57:07.767Z,34.73
2022-08-17T07:00:15.689Z,34.75
2022-08-17T07:03:07.248Z,34.70
2022-08-17T07:05:48.564Z,34.74
2022-08-17T07:08:46.774Z,34.71
2022-08-17T07:11:20.518Z,34.54
2022-08-17T07:14:17.156Z,34.69
2022-08-17T07:16:52.936Z,34.58
2022-08-17T07:19:24.664Z,34.66
2022-08-17T07:21:53.844Z,34.65
2022-08-17T07:24:34.502Z,34.62
2022-08-17T07:27:28.968Z,34.58
2022-08-17T07:30:21.053Z,34.40
2022-08-17T07:33:00.497Z,34.44
2022-08-17T07:35:44.198Z,34.53
2022-08-17T07:38:24.820Z,34.50
2022-08-17T07:40:58.897Z,34.37
2022-08-17T07:43:53.494Z,34.46
2022-08-17T07:46:54.165Z,34.41
2022-08-17T07:49:27.202Z,34.41
2022-08-17T07:52:48.379Z,34.34
2022-08-17T07:54:55.696Z,34.31
2022-08-17T07:57:39.454Z,34.40
2022-08-17T08:00:18.143Z,34.28
2022-08-17T08:02:59.897Z,34.40
2022-08-17T08:05:49.656Z,34.38
2022-08-17T08:08:44.534Z,34.39
2022-08-17T08:11:16.853Z,34.39
2022-08-17T08:13:47.275Z,34.35
2022-08-17T08:16:28.850Z,34.39
2022-08-17T08:19:03.402Z,34.34
2022-08-17T08:21:49.493Z,34.36
2022-08-17T08:24:44.299Z,34.29
2022-08-17T08:27:46.723Z,34.40
2022-08-17T08:30:26.869Z,34.39
2022-08-17T08:33:28.279Z,34.37
2022-08-17T08:36:00.793Z,34.27
2022-08-17T08:38:46.672Z,34.19
2022-08-17T08:41:18.897Z,34.14
2022-08-17T08:44:07.316Z,34.38
2022-08-17T08:46:50.309Z,34.34
2022-08-17T08:50:05.005Z,34.37
2022-08-17T08:52:52.073Z,34.37
2022-08-17T08:55:58.501Z,34.31
2022-08-17T08:58:52.446Z,34.26
2022-08-17T09:01:34.671Z,34.24
2022-08-17T09:04:29.977Z,34.38
2022-08-17T09:07:29.364Z,34.31
2022-08-17T09:09:59.445Z,34.38
2022-08-17T09:12:48.902Z,34.38
2022-08-17T09:15:28.853Z,34.39
2022-08-17T09:19:00.068Z,34.35
2022-08-17T09:21:35.461Z,34.35
2022-08-17T09:24:26.270Z,34.35
2022-08-17T09:27:03.033Z,34.29
2022-08-17T09:29:36.488Z,34.34
2022-08-17T09:32:14.048Z,34.25
2022-08-17T09:34:56.207Z,34.19
2022-08-17T09:37:35.803Z,34.36
2022-08-17T09:40:25.300Z,34.25
2022-08-17T09:43:06.555Z,34.30
2022-08-17T09:46:07.624Z,34.37
2022-08-17T09:48:46.947Z,34.34
2022-08-17T09:51:24.376Z,34.37
2022-08-17T09:53:53.642Z,34.33
2022-08-17T09:56:46.224Z,34.35
2022-08-17T09:59:39.095Z,34.34
2022-08-17T10:02:41.808Z,34.34
2022-08-17T10:05:42.635Z,34.15
2022-08-17T10:08:33.370Z,34.32
2022-08-17T10:11:20.505Z,34.24
2022-08-17T10:14:36.899Z,34.24
2022-08-17T10:17:13.994Z,34.31
2022-08-17T10:19:56.585Z,34.27
2022-08-17T10:23:02.379Z,34.29
2022-08-17T10:26:23.590Z,34.25
2022-08-17T10:28:59.475Z,34.29
2022-08-17T10:31:51.883Z,34.26
2022-08-17T10:34:42.315Z,34.25
2022-08-17T10:37:38.807Z,34.16
2022-08-17T10:40:17.061Z,34.24
2022-08-17T10:43:04.122Z,34.22
2022-08-17T10:45:51.373Z,34.22
2022-08-17T10:48:42.063Z,34.19
2022-08-17T10:51:39.298Z,34.20
2022-08-17T10:54:09.373Z,34.17
2022-08-17T10:56:45.296Z,34.15
2022-08-17T10:59:37.135Z,34.17
2022-08-17T11:02:21.346Z,34.17
2022-08-17T11:05:08.207Z,34.00
2022-08-17T11:08:29.009Z,34.18
2022-08-17T11:11:14.856Z,34.10
2022-08-17T11:14:07.491Z,34.17
2022-08-17T11:16:43.043Z,34.17
2022-08-17T11:19:42.690Z,34.10
2022-08-17T11:22:48.024Z,34.15
2022-08-17T11:25:18.518Z,34.16
2022-08-17T11:27:54.869Z,34.15
2022-08-17T11:30:43.614Z,34.16
2022-08-17T11:33:46.144Z,34.16
2022-08-17T11:36:34.715Z,34.04
2022-08-17T11:39:08.956Z,34.15
2022-08-17T11:41:52.250Z,34.13
2022-08-17T11:44:42.064Z,34.09
2022-08-17T11:47:38.403Z,34.12
2022-08-17T11:50:36.923Z,34.12
2022-08-17T11:53:06.707Z,34.07
2022-08-17T11:55:44.349Z,34.13
2022-08-17T11:58:31.975Z,34.04
2022-08-17T12:01:02.219Z,34.13
2022-08-17T12:03:38.094Z,34.11
2022-08-17T12:06:24.243Z,34.11
2022-08-17T12:09:14.453Z,34.12
2022-08-17T12:11:56.359Z,34.12
2022-08-17T12:15:07.975Z,34.06
2022-08-17T12:17:40.691Z,34.09
2022-08-17T12:20:37.128Z,34.10
2022-08-17T12:23:36.987Z,34.00
2022-08-17T12:26:23.243Z,34.06
2022-08-17T12:29:02.116Z,34.05
2022-08-17T12:31:49.028Z,34.03
2022-08-17T12:34:24.471Z,34.09
2022-08-17T12:37:00.335Z,34.06
2022-08-17T12:39:34.024Z,34.04
2022-08-17T12:42:04.249Z,34.06
2022-08-17T12:44:42.591Z,33.99
2022-08-17T12:47:22.545Z,34.03
2022-08-17T12:49:54.940Z,33.85
2022-08-17T12:52:27.260Z,34.04
2022-08-17T12:54:58.465Z,33.99
2022-08-17T12:57:36.008Z,34.03
2022-08-17T13:00:17.018Z,33.93
2022-08-17T13:02:55.487Z,34.02
2022-08-17T13:05:37.190Z,33.99
2022-08-17T13:08:17.487Z,33.98
2022-08-17T13:10:57.808Z,33.94
2022-08-17T13:13:36.088Z,33.90
2022-08-17T13:16:20.291Z,34.01
2022-08-17T13:18:59.671Z,33.94
2022-08-17T13:21:31.791Z,34.00
2022-08-17T13:24:13.292Z,34.00
2022-08-17T13:26:50.345Z,33.90
2022-08-17T13:29:20.696Z,34.00
2022-08-17T13:31:56.260Z,33.95
2022-08-17T13:35:12.574Z,33.96
2022-08-17T13:37:35.900Z,34.01
2022-08-17T13:40:11.746Z,33.90
2022-08-17T13:42:55.555Z,33.99
2022-08-17T13:45:35.176Z,33.81
2022-08-17T13:48:13.864Z,33.91
2022-08-17T13:50:51.653Z,33.85
2022-08-17T13:53:52.382Z,33.99
2022-08-17T13:56:48.013Z,33.95
2022-08-17T13:59:52.976Z,33.98
2022-08-17T14:02:20.337Z,33.97
2022-08-17T14:04:50.619Z,34.00
2022-08-17T14:07:21.990Z,33.99
2022-08-17T14:09:51.151Z,33.99
2022-08-17T14:12:23.060Z,33.93
2022-08-17T14:14:59.681Z,33.96
2022-08-17T14:17:38.094Z,33.97
2022-08-17T14:20:10.875Z,33.96
2022-08-17T14:22:44.961Z,33.93
2022-08-17T14:25:16.813Z,33.97
2022-08-17T14:27:52.916Z,33.86
2022-08-17T14:30:29.894Z,33.95
2022-08-17T14:32:59.998Z,33.95
2022-08-17T14:35:30.690Z,33.94
2022-08-17T14:38:00.353Z,33.94
2022-08-17T14:40:29.721Z,33.89
2022-08-17T14:42:59.353Z,33.93
2022-08-17T14:45:32.618Z,33.75
2022-08-17T14:48:10.380Z,33.91
2022-08-17T14:50:45.547Z,33.82
2022-08-17T14:53:17.805Z,33.90
2022-08-17T14:55:48.707Z,33.78
2022-08-17T14:58:19.374Z,33.86
2022-08-17T15:00:52.186Z,33.88
2022-08-17T15:03:21.526Z,33.86
2022-08-17T15:05:50.700Z,33.85
2022-08-17T15:08:20.845Z,33.84
2022-08-17T15:10:54.344Z,33.80
2022-08-17T15:13:29.587Z,33.80
2022-08-17T15:16:09.914Z,33.85
2022-08-17T15:18:39.406Z,33.86
2022-08-17T15:21:11.229Z,33.86
2022-08-17T15:23:41.251Z,33.86
2022-08-17T15:26:13.583Z,33.89
2022-08-17T15:28:42.862Z,33.84
2022-08-17T15:31:12.594Z,33.86
2022-08-17T15:33:42.205Z,33.73
2022-08-17T15:36:11.658Z,33.75
2022-08-17T15:38:44.494Z,33.88
2022-08-17T15:41:16.699Z,33.88
2022-08-17T15:43:48.128Z,33.78
2022-08-17T15:46:23.206Z,33.88
2022-08-17T15:48:54.823Z,33.86
2022-08-17T15:51:29.715Z,33.84
2022-08-17T15:54:19.423Z,33.87
2022-08-17T15:56:52.782Z,33.87
2022-08-17T15:59:22.094Z,33.85
2022-08-17T16:03:07.866Z,33.77
2022-08-17T16:04:46.073Z,33.84
2022-08-17T16:07:21.865Z,33.87
2022-08-17T16:09:53.911Z,33.86
2022-08-17T16:12:23.725Z,33.77
2022-08-17T16:14:54.604Z,33.83
2022-08-17T16:17:38.798Z,33.83
2022-08-17T16:20:20.638Z,33.84
2022-08-17T16:22:51.511Z,33.81
2022-08-17T16:25:53.268Z,33.82
2022-08-17T16:28:16.366Z,33.82
2022-08-17T16:30:46.654Z,33.79
2022-08-17T16:33:18.113Z,33.76
2022-08-17T16:35:50.136Z,33.70
2022-08-17T16:38:20.029Z,33.74
2022-08-17T16:40:49.319Z,33.67
2022-08-17T16:43:18.632Z,33.65
2022-08-17T16:45:52.003Z,33.76
2022-08-17T16:48:21.455Z,33.75
2022-08-17T16:51:03.390Z,33.77
2022-08-17T16:53:33.979Z,33.67
2022-08-17T16:56:03.260Z,33.77
2022-08-17T16:58:32.508Z,33.73
2022-08-17T17:01:02.035Z,33.57
2022-08-17T17:03:32.623Z,33.74
2022-08-17T17:06:15.441Z,33.73
2022-08-17T17:08:58.096Z,33.71
2022-08-17T17:11:35.421Z,33.62
2022-08-17T17:14:29.608Z,33.70
2022-08-17T17:17:15.822Z,33.75
2022-08-17T17:20:02.661Z,33.74
2022-08-17T17:22:49.748Z,33.64
2022-08-17T17:25:22.658Z,33.75
2022-08-17T17:28:06.597Z,33.69
2022-08-17T17:31:03.748Z,33.74
2022-08-17T17:33:49.524Z,33.73
2022-08-17T17:36:34.288Z,33.65
2022-08-17T17:39:14.033Z,33.70
2022-08-17T17:41:57.506Z,33.53
2022-08-17T17:44:35.642Z,33.72
2022-08-17T17:47:05.890Z,33.64
2022-08-17T17:49:41.940Z,33.71
2022-08-17T17:52:15.519Z,33.74
2022-08-17T17:55:15.038Z,33.54
2022-08-17T17:57:59.669Z,33.73
2022-08-17T18:00:53.799Z,33.68
2022-08-17T18:03:47.063Z,33.72
2022-08-17T18:06:22.264Z,33.72
2022-08-17T18:09:04.377Z,33.71
2022-08-17T18:12:04.784Z,33.66
2022-08-17T18:14:37.629Z,33.59
2022-08-17T18:17:08.224Z,33.71
2022-08-17T18:19:41.256Z,33.46
2022-08-17T18:22:19.959Z,33.67
2022-08-17T18:24:57.179Z,33.55
2022-08-17T18:27:31.819Z,33.51
2022-08-17T18:30:21.310Z,33.63
2022-08-17T18:32:50.895Z,33.65
2022-08-17T18:35:29.702Z,33.66
2022-08-17T18:38:24.799Z,33.59
2022-08-17T18:41:02.068Z,33.61
2022-08-17T18:43:52.903Z,33.51
2022-08-17T18:46:37.801Z,33.61
2022-08-17T18:49:11.824Z,33.63
2022-08-17T18:51:44.441Z,33.58
2022-08-17T18:54:21.165Z,33.57
2022-08-17T18:56:54.867Z,33.61
2022-08-17T18:59:25.818Z,33.61
2022-08-17T19:02:38.675Z,33.60
2022-08-17T19:05:28.396Z,33.60
2022-08-17T19:08:26.503Z,33.58
2022-08-17T19:11:23.655Z,33.60
2022-08-17T19:14:17.936Z,33.58
2022-08-17T19:17:12.138Z,33.60
2022-08-17T19:19:58.821Z,33.55
2022-08-17T19:23:21.017Z,33.59
2022-08-17T19:25:56.832Z,33.59
2022-08-17T19:28:48.519Z,33.58
2022-08-17T19:31:27.390Z,33.58
2022-08-17T19:33:57.488Z,33.58
2022-08-17T19:36:39.413Z,33.57
2022-08-17T19:39:47.715Z,33.56
2022-08-17T19:42:38.457Z,33.59
2022-08-17T19:45:18.234Z,33.46
2022-08-17T19:48:04.704Z,33.58
2022-08-17T19:50:43.079Z,33.58
2022-08-17T19:53:36.659Z,33.55
2022-08-17T19:56:41.286Z,33.38
2022-08-17T19:59:13.458Z,33.46
2022-08-17T20:01:49.837Z,33.52
2022-08-17T20:04:19.102Z,33.55
2022-08-17T20:06:54.168Z,33.49
2022-08-17T20:09:35.803Z,33.35
2022-08-17T20:12:11.735Z,33.49
2022-08-17T20:15:09.996Z,33.45
2022-08-17T20:17:48.488Z,33.50
2022-08-17T20:20:29.930Z,33.52
2022-08-17T20:23:27.424Z,33.41
2022-08-17T20:26:01.537Z,33.51
2022-08-17T20:28:36.313Z,33.38
2022-08-17T20:31:42.756Z,33.49
2022-08-17T20:34:37.303Z,33.22
2022-08-17T20:37:07.835Z,33.49
2022-08-17T20:39:51.305Z,33.46
2022-08-17T20:42:23.311Z,33.46
2022-08-17T20:45:03.917Z,33.41
2022-08-17T20:48:14.614Z,33.43
2022-08-17T20:50:49.108Z,33.42
2022-08-17T20:53:50.349Z,33.45
2022-08-17T20:56:47.693Z,33.46
2022-08-17T20:59:26.933Z,33.47
2022-08-17T21:02:18.689Z,33.46
2022-08-17T21:04:55.656Z,33.36
2022-08-17T21:07:54.417Z,33.47
2022-08-17T21:10:23.794Z,33.28
2022-08-17T21:13:39.842Z,33.45
2022-08-17T21:16:28.150Z,33.46
2022-08-17T21:19:24.250Z,33.46
2022-08-17T21:21:59.350Z,33.47
2022-08-17T21:24:45.075Z,33.45
2022-08-17T21:27:20.353Z,33.45
2022-08-17T21:30:16.264Z,33.45
2022-08-17T21:33:22.148Z,33.46
2022-08-17T21:36:13.441Z,33.46
2022-08-17T21:39:10.080Z,33.38
2022-08-17T21:41:55.707Z,33.45
2022-08-17T21:44:40.772Z,33.44
2022-08-17T21:47:25.474Z,33.31
2022-08-17T21:49:56.434Z,33.42
2022-08-17T21:52:28.048Z,33.41
2022-08-17T21:55:03.819Z,33.42
2022-08-17T21:57:34.564Z,33.35
2022-08-17T22:00:07.434Z,33.43
2022-08-17T22:02:38.835Z,33.40
2022-08-17T22:05:11.679Z,33.41
2022-08-17T22:07:51.986Z,33.39
2022-08-17T22:10:40.538Z,33.44
2022-08-17T22:13:20.923Z,33.39
2022-08-17T22:15:54.832Z,33.42
2022-08-17T22:18:30.244Z,33.42
2022-08-17T22:21:02.850Z,33.30
2022-08-17T22:24:01.868Z,33.29
2022-08-17T22:27:01.952Z,33.43
2022-08-17T22:30:29.120Z,33.42
2022-08-17T22:32:58.926Z,33.42
2022-08-17T22:35:31.067Z,33.20
2022-08-17T22:38:20.084Z,33.39
2022-08-17T22:40:51.948Z,33.43
2022-08-17T22:43:27.302Z,33.35
2022-08-17T22:46:02.287Z,33.41
2022-08-17T22:48:32.425Z,33.38
2022-08-17T22:51:12.635Z,33.42
2022-08-17T22:54:13.778Z,33.45
2022-08-17T22:57:24.154Z,33.46
2022-08-17T22:59:57.053Z,33.47
2022-08-17T23:02:30.687Z,33.36
2022-08-17T23:05:14.117Z,33.29
2022-08-17T23:07:44.797Z,33.50
2022-08-17T23:10:16.006Z,33.51
2022-08-17T23:12:45.498Z,33.51
2022-08-17T23:15:20.409Z,33.51
2022-08-17T23:17:49.928Z,33.33
2022-08-17T23:20:19.662Z,33.47
2022-08-17T23:22:52.221Z,33.54
2022-08-17T23:25:33.359Z,33.52
2022-08-17T23:28:04.557Z,33.56
2022-08-17T23:30:36.521Z,33.49
2022-08-17T23:33:08.369Z,33.58
2022-08-17T23:35:39.317Z,33.58
2022-08-17T23:38:15.308Z,33.59
2022-08-17T23:40:44.697Z,33.66
2022-08-17T23:43:24.560Z,33.63
2022-08-17T23:46:00.882Z,33.68
2022-08-17T23:48:35.807Z,33.69
2022-08-17T23:51:11.783Z,33.64
2022-08-17T23:53:46.015Z,33.69
2022-08-17T23:56:16.002Z,33.62
2022-08-17T23:58:46.614Z,33.66
